createdAt,value
2022-11-16T00:01:41.065Z,14.80
2022-11-16T00:04:12.842Z,15.00
2022-11-16T00:06:42.202Z,15.20
2022-11-16T00:09:26.743Z,15.10
2022-11-16T00:11:56.889Z,15.10
2022-11-16T00:14:27.028Z,15.00
2022-11-16T00:16:55.045Z,15.10
2022-11-16T00:19:24.907Z,15.30
2022-11-16T00:21:53.222Z,15.10
2022-11-16T00:24:23.253Z,15.10
2022-11-16T00:26:52.067Z,15.10
2022-11-16T00:29:22.527Z,15.10
2022-11-16T00:31:50.909Z,15.10
2022-11-16T00:34:19.344Z,15.00
2022-11-16T00:36:48.577Z,15.00
2022-11-16T00:39:17.752Z,15.00
2022-11-16T00:41:46.054Z,15.10
2022-11-16T00:44:14.314Z,15.30
2022-11-16T00:46:42.397Z,15.40
2022-11-16T00:49:10.462Z,15.40
2022-11-16T00:51:38.754Z,15.30
2022-11-16T00:54:09.418Z,15.10
2022-11-16T00:56:38.339Z,14.90
2022-11-16T00:59:06.286Z,15.00
2022-11-16T01:01:34.518Z,15.00
2022-11-16T01:04:02.555Z,15.20
2022-11-16T01:06:30.422Z,15.30
2022-11-16T01:08:58.337Z,15.40
2022-11-16T01:11:45.281Z,15.30
2022-11-16T01:14:13.315Z,15.30
2022-11-16T01:16:41.153Z,15.30
2022-11-16T01:19:10.455Z,15.10
2022-11-16T01:21:38.306Z,15.10
2022-11-16T01:24:07.009Z,14.90
2022-11-16T01:26:36.260Z,14.90
2022-11-16T01:29:04.203Z,14.80
2022-11-16T01:31:32.097Z,14.70
2022-11-16T01:33:59.929Z,14.90
2022-11-16T01:36:27.779Z,14.90
2022-11-16T01:38:55.649Z,15.00
2022-11-16T01:41:25.682Z,15.00
2022-11-16T01:43:58.616Z,15.30
2022-11-16T01:46:27.595Z,15.30
2022-11-16T01:49:01.646Z,15.40
2022-11-16T01:51:30.079Z,15.60
2022-11-16T01:53:58.255Z,15.50
2022-11-16T01:56:27.155Z,15.60
2022-11-16T01:58:56.354Z,15.70
2022-11-16T02:01:24.548Z,15.80
2022-11-16T02:03:52.399Z,15.70
2022-11-16T02:06:41.767Z,15.60
2022-11-16T02:09:41.795Z,15.30
2022-11-16T02:12:32.021Z,15.40
2022-11-16T02:15:14.408Z,15.40
2022-11-16T02:17:59.430Z,15.40
2022-11-16T02:20:43.257Z,15.50
2022-11-16T02:23:48.465Z,15.60
2022-11-16T02:26:38.422Z,15.60
2022-11-16T02:29:21.292Z,15.70
2022-11-16T02:31:55.384Z,15.60
2022-11-16T02:34:25.462Z,15.70
2022-11-16T02:36:56.501Z,15.90
2022-11-16T02:39:28.324Z,15.90
2022-11-16T02:41:57.990Z,15.90
2022-11-16T02:44:31.914Z,16.10
2022-11-16T02:47:03.626Z,16.20
2022-11-16T02:49:34.462Z,16.30
2022-11-16T02:52:02.889Z,16.30
2022-11-16T02:54:30.747Z,16.40
2022-11-16T02:57:20.756Z,16.10
2022-11-16T02:59:53.752Z,15.80
2022-11-16T03:02:26.655Z,15.90
2022-11-16T03:05:00.805Z,15.80
2022-11-16T03:07:40.756Z,15.50
2022-11-16T03:10:10.150Z,15.60
2022-11-16T03:12:40.398Z,15.60
2022-11-16T03:15:13.277Z,15.70
2022-11-16T03:17:45.318Z,15.90
2022-11-16T03:20:16.497Z,15.90
2022-11-16T03:22:46.736Z,16.00
2022-11-16T03:25:17.338Z,15.80
2022-11-16T03:27:50.986Z,15.70
2022-11-16T03:30:24.060Z,15.70
2022-11-16T03:32:56.760Z,15.60
2022-11-16T03:35:28.735Z,15.50
2022-11-16T03:37:59.488Z,15.60
2022-11-16T03:40:31.357Z,15.50
2022-11-16T03:43:01.806Z,15.50
2022-11-16T03:45:32.435Z,15.70
2022-11-16T03:48:01.449Z,15.80
2022-11-16T03:50:29.306Z,15.90
2022-11-16T03:52:57.151Z,16.10
2022-11-16T03:55:25.080Z,16.10
2022-11-16T03:57:52.926Z,16.00
2022-11-16T04:00:20.974Z,16.00
2022-11-16T04:02:50.865Z,15.90
2022-11-16T04:05:36.322Z,15.80
2022-11-16T04:08:21.888Z,15.80
2022-11-16T04:11:07.328Z,15.80
2022-11-16T04:13:53.490Z,15.90
2022-11-16T04:16:39.121Z,15.80
2022-11-16T04:19:27.156Z,15.80
2022-11-16T04:22:15.925Z,15.80
2022-11-16T04:24:47.449Z,15.80
2022-11-16T04:27:34.716Z,15.80
2022-11-16T04:30:04.124Z,15.90
2022-11-16T04:32:49.457Z,15.90
2022-11-16T04:35:36.049Z,15.90
2022-11-16T04:38:03.910Z,16.00
2022-11-16T04:40:31.836Z,16.00
2022-11-16T04:43:01.331Z,16.10
2022-11-16T04:45:47.698Z,16.10
2022-11-16T04:48:17.788Z,16.20
2022-11-16T04:50:48.126Z,16.30
2022-11-16T04:53:16.697Z,16.50
2022-11-16T04:55:44.580Z,16.60
2022-11-16T04:58:12.445Z,16.60
2022-11-16T05:00:40.297Z,16.70
2022-11-16T05:03:08.180Z,16.60
2022-11-16T05:05:36.040Z,16.80
2022-11-16T05:08:05.466Z,16.80
2022-11-16T05:10:33.339Z,16.80
2022-11-16T05:13:01.188Z,16.90
2022-11-16T05:15:29.086Z,16.80
2022-11-16T05:17:58.141Z,16.80
2022-11-16T05:20:43.351Z,16.80
2022-11-16T05:23:26.467Z,16.80
2022-11-16T05:25:54.291Z,16.70
2022-11-16T05:28:22.111Z,16.60
2022-11-16T05:30:49.929Z,16.70
2022-11-16T05:33:18.564Z,16.70
2022-11-16T05:35:46.380Z,16.60
2022-11-16T05:38:15.548Z,16.60
2022-11-16T05:40:43.377Z,16.70
2022-11-16T05:43:11.281Z,16.70
2022-11-16T05:45:39.123Z,16.80
2022-11-16T05:48:06.966Z,16.90
2022-11-16T05:50:39.889Z,16.90
2022-11-16T05:53:10.316Z,16.90
2022-11-16T05:55:39.506Z,16.80
2022-11-16T05:58:07.367Z,16.90
2022-11-16T06:00:35.206Z,17.00
2022-11-16T06:03:03.202Z,17.30
2022-11-16T06:05:32.469Z,17.20
2022-11-16T06:08:01.964Z,17.30
2022-11-16T06:10:29.827Z,17.30
2022-11-16T06:12:59.045Z,17.40
2022-11-16T06:15:26.912Z,17.70
2022-11-16T06:17:54.767Z,17.80
2022-11-16T06:20:22.713Z,18.00
2022-11-16T06:22:50.557Z,18.10
2022-11-16T06:25:18.862Z,18.20
2022-11-16T06:27:46.727Z,18.20
2022-11-16T06:30:16.820Z,18.20
2022-11-16T06:32:45.284Z,18.00
2022-11-16T06:35:13.134Z,18.00
2022-11-16T06:37:40.988Z,18.00
2022-11-16T06:40:10.489Z,17.90
2022-11-16T06:42:38.624Z,17.80
2022-11-16T06:45:07.196Z,17.70
2022-11-16T06:47:36.434Z,17.50
2022-11-16T06:50:04.652Z,17.20
2022-11-16T06:52:32.521Z,17.10
2022-11-16T06:55:00.364Z,17.10
2022-11-16T06:57:28.192Z,17.10
2022-11-16T06:59:56.046Z,17.20
2022-11-16T07:02:23.914Z,17.10
2022-11-16T07:04:53.109Z,17.10
2022-11-16T07:07:21.013Z,17.00
2022-11-16T07:09:48.932Z,16.90
2022-11-16T07:12:16.780Z,17.00
2022-11-16T07:14:45.348Z,17.10
2022-11-16T07:17:13.193Z,17.10
2022-11-16T07:19:41.074Z,17.30
2022-11-16T07:22:10.282Z,17.60
2022-11-16T07:24:38.129Z,17.80
2022-11-16T07:27:06.043Z,18.00
2022-11-16T07:29:33.913Z,18.20
2022-11-16T07:32:01.772Z,18.40
2022-11-16T07:34:29.730Z,18.40
2022-11-16T07:36:57.606Z,18.50
2022-11-16T07:39:26.815Z,18.50
2022-11-16T07:41:54.689Z,18.50
2022-11-16T07:44:22.570Z,18.50
2022-11-16T07:46:50.410Z,18.60
2022-11-16T07:49:19.610Z,18.60
2022-11-16T07:51:47.853Z,18.60
2022-11-16T07:54:16.661Z,18.60
2022-11-16T07:56:46.077Z,18.60
2022-11-16T07:59:13.937Z,18.60
2022-11-16T08:01:41.886Z,18.70
2022-11-16T08:04:09.770Z,18.50
2022-11-16T08:06:37.671Z,18.40
2022-11-16T08:09:05.685Z,18.40
2022-11-16T08:11:33.613Z,18.50
2022-11-16T08:14:02.873Z,18.50
2022-11-16T08:16:33.107Z,18.50
2022-11-16T08:19:02.219Z,18.50
2022-11-16T08:21:30.120Z,18.40
2022-11-16T08:23:58.904Z,18.50
2022-11-16T08:26:27.542Z,18.50
2022-11-16T08:28:57.064Z,18.40
2022-11-16T08:31:27.998Z,18.40
2022-11-16T08:33:56.638Z,18.40
2022-11-16T08:36:24.866Z,18.40
2022-11-16T08:38:53.410Z,18.30
2022-11-16T08:41:22.207Z,18.30
2022-11-16T08:43:53.052Z,18.30
2022-11-16T08:46:21.165Z,18.30
2022-11-16T08:48:50.362Z,18.40
2022-11-16T08:51:20.146Z,18.40
2022-11-16T08:53:49.435Z,18.40
2022-11-16T08:56:19.259Z,18.50
2022-11-16T08:58:50.240Z,18.60
2022-11-16T09:01:22.413Z,18.70
2022-11-16T09:03:52.950Z,18.60
2022-11-16T09:06:21.724Z,18.40
2022-11-16T09:08:49.602Z,18.30
2022-11-16T09:11:19.930Z,18.20
2022-11-16T09:13:49.150Z,18.30
2022-11-16T09:16:17.981Z,18.30
2022-11-16T09:18:47.055Z,18.40
2022-11-16T09:21:20.306Z,18.50
2022-11-16T09:23:48.909Z,18.60
2022-11-16T09:26:19.066Z,18.70
2022-11-16T09:28:46.919Z,18.80
2022-11-16T09:31:17.659Z,18.90
2022-11-16T09:33:49.809Z,18.90
2022-11-16T09:36:20.514Z,18.90
2022-11-16T09:42:01.187Z,19.10
2022-11-16T09:44:57.406Z,19.10
2022-11-16T09:47:32.647Z,19.20
2022-11-16T09:50:04.666Z,19.20
2022-11-16T09:52:39.591Z,19.20
2022-11-16T09:55:25.571Z,19.20
2022-11-16T09:57:56.959Z,19.30
2022-11-16T10:00:25.169Z,19.30
2022-11-16T10:03:03.455Z,19.40
2022-11-16T10:05:37.446Z,19.20
2022-11-16T10:08:14.348Z,19.20
2022-11-16T10:10:52.213Z,19.30
2022-11-16T10:13:29.826Z,19.30
2022-11-16T10:16:04.004Z,19.40
2022-11-16T10:18:44.126Z,19.40
2022-11-16T10:21:34.790Z,19.40
2022-11-16T10:24:37.946Z,19.50
2022-11-16T10:27:35.198Z,19.40
2022-11-16T10:30:10.130Z,19.50
2022-11-16T10:32:42.033Z,19.50
2022-11-16T10:35:18.255Z,19.50
2022-11-16T10:37:49.154Z,19.40
2022-11-16T10:40:21.616Z,19.30
2022-11-16T10:43:00.026Z,19.30
2022-11-16T10:45:34.613Z,19.40
2022-11-16T10:48:13.464Z,19.30
2022-11-16T10:50:44.954Z,19.30
2022-11-16T10:53:15.591Z,19.40
2022-11-16T10:55:44.791Z,19.50
2022-11-16T10:58:12.660Z,19.50
2022-11-16T11:00:44.839Z,19.60
2022-11-16T11:03:13.165Z,19.70
2022-11-16T11:05:50.385Z,19.60
2022-11-16T11:08:27.436Z,19.50
2022-11-16T11:11:24.530Z,19.60
2022-11-16T11:14:09.798Z,19.60
2022-11-16T11:16:37.993Z,19.70
2022-11-16T11:19:25.422Z,19.70
2022-11-16T11:21:58.177Z,19.70
2022-11-16T11:24:45.096Z,19.60
2022-11-16T11:27:21.689Z,19.70
2022-11-16T11:29:53.303Z,19.80
2022-11-16T11:32:24.526Z,19.80
2022-11-16T11:34:55.731Z,19.90
2022-11-16T11:37:28.553Z,19.90
2022-11-16T11:40:21.743Z,19.90
2022-11-16T11:42:56.943Z,19.90
2022-11-16T11:45:31.554Z,19.90
2022-11-16T11:48:02.714Z,19.90
2022-11-16T11:50:43.420Z,19.70
2022-11-16T11:53:21.822Z,19.20
2022-11-16T11:55:53.576Z,18.80
2022-11-16T11:58:24.397Z,18.90
2022-11-16T12:01:00.784Z,19.10
2022-11-16T12:03:57.527Z,19.20
2022-11-16T12:06:32.662Z,19.30
2022-11-16T12:09:21.342Z,19.50
2022-11-16T12:12:04.404Z,19.60
2022-11-16T12:14:56.782Z,19.60
2022-11-16T12:17:31.798Z,19.70
2022-11-16T12:20:16.218Z,19.60
2022-11-16T12:23:26.984Z,19.60
2022-11-16T12:26:02.119Z,19.50
2022-11-16T12:28:50.931Z,19.50
2022-11-16T12:31:37.482Z,19.50
2022-11-16T12:34:11.166Z,19.70
2022-11-16T12:36:56.948Z,19.60
2022-11-16T12:39:27.539Z,19.60
2022-11-16T12:42:28.214Z,19.50
2022-11-16T12:45:18.408Z,19.50
2022-11-16T12:48:05.131Z,19.60
2022-11-16T12:50:51.366Z,19.70
2022-11-16T12:53:55.683Z,19.80
2022-11-16T12:56:34.370Z,19.80
2022-11-16T12:59:25.326Z,19.70
2022-11-16T13:02:04.361Z,19.80
2022-11-16T13:04:40.312Z,19.90
2022-11-16T13:07:13.558Z,20.00
2022-11-16T13:09:44.745Z,20.00
2022-11-16T13:12:17.106Z,20.00
2022-11-16T13:14:47.896Z,20.00
2022-11-16T13:17:21.599Z,20.10
2022-11-16T13:20:14.238Z,20.10
2022-11-16T13:22:50.764Z,20.00
2022-11-16T13:25:25.545Z,19.90
2022-11-16T13:27:59.470Z,19.50
2022-11-16T13:30:30.041Z,19.60
2022-11-16T13:33:13.950Z,19.60
2022-11-16T13:35:43.318Z,19.80
2022-11-16T13:38:13.420Z,19.80
2022-11-16T13:40:41.857Z,19.90
2022-11-16T13:43:22.552Z,19.90
2022-11-16T13:45:58.463Z,19.80
2022-11-16T13:48:30.552Z,19.70
2022-11-16T13:51:02.715Z,19.70
2022-11-16T13:56:28.336Z,19.60
2022-11-16T13:58:58.394Z,19.40
2022-11-16T14:01:26.570Z,19.50
2022-11-16T14:04:33.313Z,19.50
2022-11-16T14:07:02.609Z,19.10
2022-11-16T14:09:47.533Z,19.20
2022-11-16T14:12:54.286Z,19.20
2022-11-16T14:15:24.578Z,19.20
2022-11-16T14:17:58.708Z,19.20
2022-11-16T14:20:57.962Z,18.90
2022-11-16T14:23:35.864Z,18.60
2022-11-16T14:26:13.925Z,18.40
2022-11-16T14:29:20.057Z,18.60
2022-11-16T14:31:52.110Z,17.90
2022-11-16T14:34:23.362Z,17.80
2022-11-16T14:36:51.455Z,17.50
2022-11-16T14:39:30.674Z,17.60
2022-11-16T14:42:01.640Z,17.40
2022-11-16T14:44:33.430Z,17.20
2022-11-16T14:47:03.629Z,17.40
2022-11-16T14:49:34.798Z,17.70
2022-11-16T14:52:05.400Z,17.40
2022-11-16T14:54:39.270Z,17.40
2022-11-16T14:57:08.761Z,17.50
2022-11-16T14:59:36.622Z,17.50
2022-11-16T15:02:15.176Z,17.10
2022-11-16T15:04:43.138Z,17.40
2022-11-16T15:07:14.476Z,17.30
2022-11-16T15:09:48.132Z,17.20
2022-11-16T15:12:36.402Z,17.20
2022-11-16T15:15:07.831Z,17.10
2022-11-16T15:17:36.581Z,16.80
2022-11-16T15:20:15.748Z,16.70
2022-11-16T15:22:45.861Z,16.90
2022-11-16T15:25:27.598Z,16.80
2022-11-16T15:27:56.226Z,17.00
2022-11-16T15:30:26.533Z,17.20
2022-11-16T15:32:55.228Z,17.10
2022-11-16T15:35:25.033Z,17.30
2022-11-16T15:38:03.909Z,17.20
2022-11-16T15:40:34.228Z,16.90
2022-11-16T15:43:05.936Z,17.00
2022-11-16T15:45:34.635Z,16.90
2022-11-16T15:48:04.241Z,17.00
2022-11-16T15:50:32.426Z,17.10
2022-11-16T15:53:00.269Z,17.20
2022-11-16T15:55:39.666Z,17.30
2022-11-16T15:58:16.201Z,17.60
2022-11-16T16:00:48.734Z,17.60
2022-11-16T16:03:21.685Z,17.60
2022-11-16T16:05:50.157Z,17.50
2022-11-16T16:08:32.894Z,17.60
2022-11-16T16:11:13.570Z,17.70
2022-11-16T16:13:42.934Z,17.80
2022-11-16T16:16:30.412Z,17.70
2022-11-16T16:19:05.120Z,17.80
2022-11-16T16:21:44.695Z,17.50
2022-11-16T16:24:36.941Z,17.30
2022-11-16T16:27:13.985Z,17.30
2022-11-16T16:29:41.906Z,17.60
2022-11-16T16:32:15.259Z,17.70
2022-11-16T16:34:43.170Z,17.60
2022-11-16T16:37:14.534Z,17.40
2022-11-16T16:39:42.513Z,17.50
2022-11-16T16:42:13.614Z,17.00
2022-11-16T16:44:41.808Z,16.60
2022-11-16T16:47:10.361Z,16.70
2022-11-16T16:49:38.421Z,16.60
2022-11-16T16:52:07.898Z,16.60
2022-11-16T16:54:35.748Z,16.90
2022-11-16T16:57:03.589Z,17.00
2022-11-16T16:59:33.005Z,17.20
2022-11-16T17:02:00.919Z,17.30
2022-11-16T17:04:28.777Z,17.30
2022-11-16T17:06:56.667Z,17.30
2022-11-16T17:09:24.532Z,17.40
2022-11-16T17:11:52.372Z,17.00
2022-11-16T17:14:24.255Z,17.10
2022-11-16T17:16:53.475Z,17.30
2022-11-16T17:19:21.944Z,17.30
2022-11-16T17:21:49.859Z,17.10
2022-11-16T17:24:17.750Z,16.80
2022-11-16T17:26:48.172Z,16.40
2022-11-16T17:29:16.326Z,16.60
2022-11-16T17:31:44.829Z,16.80
2022-11-16T17:34:14.555Z,16.90
2022-11-16T17:36:42.652Z,17.00
2022-11-16T17:39:10.566Z,17.10
2022-11-16T17:41:38.611Z,17.10
2022-11-16T17:44:07.215Z,16.50
2022-11-16T17:46:35.115Z,16.70
2022-11-16T17:49:03.059Z,16.90
2022-11-16T17:51:32.280Z,16.90
2022-11-16T17:54:00.181Z,17.00
2022-11-16T17:56:29.143Z,16.70
2022-11-16T17:58:58.391Z,16.60
2022-11-16T18:01:27.169Z,16.40
2022-11-16T18:03:55.312Z,16.00
2022-11-16T18:06:24.942Z,16.30
2022-11-16T18:08:55.568Z,16.60
2022-11-16T18:11:25.852Z,16.90
2022-11-16T18:13:54.846Z,17.10
2022-11-16T18:16:24.408Z,17.20
2022-11-16T18:18:57.792Z,17.20
2022-11-16T18:21:25.940Z,17.30
2022-11-16T18:23:55.550Z,17.30
2022-11-16T18:26:24.682Z,17.30
2022-11-16T18:28:53.915Z,17.20
2022-11-16T18:31:23.900Z,17.10
2022-11-16T18:33:52.432Z,17.30
2022-11-16T18:36:22.545Z,17.40
2022-11-16T18:38:50.652Z,17.40
2022-11-16T18:41:21.526Z,16.90
2022-11-16T18:43:51.448Z,16.90
2022-11-16T18:46:19.825Z,16.60
2022-11-16T18:48:48.269Z,16.60
2022-11-16T18:51:17.751Z,16.80
2022-11-16T18:53:45.996Z,16.90
2022-11-16T18:56:14.537Z,17.00
2022-11-16T18:58:50.357Z,17.00
2022-11-16T19:01:21.033Z,17.20
2022-11-16T19:03:49.137Z,17.30
2022-11-16T19:06:17.750Z,17.30
2022-11-16T19:08:50.511Z,17.00
2022-11-16T19:11:24.278Z,16.70
2022-11-16T19:13:56.115Z,16.80
2022-11-16T19:16:25.093Z,16.90
2022-11-16T19:18:53.452Z,16.80
2022-11-16T19:21:21.797Z,16.60
2022-11-16T19:23:51.573Z,16.90
2022-11-16T19:26:22.432Z,17.10
2022-11-16T19:28:51.463Z,17.20
2022-11-16T19:31:22.409Z,17.30
2022-11-16T19:33:54.981Z,17.40
2022-11-16T19:36:23.348Z,17.50
2022-11-16T19:38:51.992Z,17.50
2022-11-16T19:41:21.535Z,17.40
2022-11-16T19:43:51.226Z,17.40
2022-11-16T19:46:21.454Z,17.30
2022-11-16T19:48:49.975Z,17.20
2022-11-16T19:51:19.799Z,17.20
2022-11-16T19:53:48.439Z,17.20
2022-11-16T19:56:17.953Z,17.10
2022-11-16T19:58:46.007Z,17.10
2022-11-16T20:01:16.984Z,17.10
2022-11-16T20:03:46.712Z,16.70
2022-11-16T20:06:17.028Z,16.70
2022-11-16T20:08:49.005Z,16.60
2022-11-16T20:11:18.400Z,16.30
2022-11-16T20:13:46.223Z,15.90
2022-11-16T20:16:15.427Z,15.80
2022-11-16T20:18:44.120Z,16.10
2022-11-16T20:21:17.676Z,15.90
2022-11-16T20:23:45.582Z,16.20
2022-11-16T20:26:14.790Z,16.30
2022-11-16T20:28:43.774Z,16.20
2022-11-16T20:31:13.629Z,16.30
2022-11-16T20:33:41.789Z,16.50
2022-11-16T20:36:11.945Z,16.60
2022-11-16T20:38:41.410Z,16.70
2022-11-16T20:41:10.986Z,16.90
2022-11-16T20:43:40.121Z,17.00
2022-11-16T20:46:08.400Z,17.00
2022-11-16T20:48:40.395Z,17.00
2022-11-16T20:51:09.813Z,17.10
2022-11-16T20:53:38.225Z,17.20
2022-11-16T20:56:08.568Z,17.20
2022-11-16T20:58:36.481Z,17.10
2022-11-16T21:01:05.793Z,17.00
2022-11-16T21:03:34.611Z,17.00
2022-11-16T21:06:02.761Z,17.10
2022-11-16T21:08:31.089Z,17.10
2022-11-16T21:10:58.951Z,17.10
2022-11-16T21:13:46.072Z,17.20
2022-11-16T21:16:16.287Z,17.20
2022-11-16T21:18:44.077Z,17.30
2022-11-16T21:21:13.944Z,17.20
2022-11-16T21:23:44.991Z,17.20
2022-11-16T21:26:14.955Z,17.20
2022-11-16T21:28:44.685Z,17.10
2022-11-16T21:31:14.798Z,17.10
2022-11-16T21:33:43.607Z,17.00
2022-11-16T21:36:13.135Z,16.90
2022-11-16T21:38:41.153Z,16.40
2022-11-16T21:41:09.760Z,16.30
2022-11-16T21:43:38.257Z,16.30
2022-11-16T21:46:10.644Z,16.30
2022-11-16T21:48:39.115Z,16.30
2022-11-16T21:51:08.509Z,16.40
2022-11-16T21:53:37.312Z,16.40
2022-11-16T21:56:06.636Z,16.20
2022-11-16T21:58:34.547Z,16.00
2022-11-16T22:01:03.236Z,15.90
2022-11-16T22:03:33.221Z,15.10
2022-11-16T22:06:20.815Z,15.10
2022-11-16T22:08:49.509Z,15.10
2022-11-16T22:11:21.735Z,15.50
2022-11-16T22:13:50.122Z,15.50
2022-11-16T22:16:19.264Z,15.50
2022-11-16T22:18:48.434Z,15.30
2022-11-16T22:21:16.256Z,15.30
2022-11-16T22:23:44.090Z,15.10
2022-11-16T22:26:13.269Z,15.30
2022-11-16T22:28:43.115Z,15.50
2022-11-16T22:31:12.969Z,15.00
2022-11-16T22:33:41.108Z,15.00
2022-11-16T22:36:11.146Z,14.80
2022-11-16T22:38:39.238Z,14.80
2022-11-16T22:41:07.239Z,15.00
2022-11-16T22:43:35.856Z,14.90
2022-11-16T22:46:06.355Z,15.00
2022-11-16T22:48:34.942Z,14.90
2022-11-16T22:51:04.510Z,14.90
2022-11-16T22:53:34.154Z,14.70
2022-11-16T22:56:07.013Z,14.20
2022-11-16T22:58:34.978Z,14.30
2022-11-16T23:01:03.087Z,14.20
2022-11-16T23:03:31.279Z,13.80
2022-11-16T23:05:59.553Z,13.90
2022-11-16T23:08:27.396Z,13.50
2022-11-16T23:11:18.543Z,13.50
2022-11-16T23:14:04.534Z,13.50
2022-11-16T23:16:32.509Z,13.40
2022-11-16T23:19:00.617Z,13.50
2022-11-16T23:21:46.373Z,13.90
2022-11-16T23:24:33.746Z,13.90
2022-11-16T23:27:22.489Z,13.40
2022-11-16T23:29:50.776Z,13.60
2022-11-16T23:32:18.611Z,14.00
2022-11-16T23:34:46.426Z,13.90
2022-11-16T23:37:14.283Z,13.90
2022-11-16T23:39:42.092Z,13.90
2022-11-16T23:42:29.601Z,13.90
2022-11-16T23:44:57.473Z,13.90
2022-11-16T23:47:25.487Z,13.80
2022-11-16T23:49:53.301Z,13.60
2022-11-16T23:52:21.226Z,13.50
2022-11-16T23:54:49.041Z,13.10
2022-11-16T23:57:18.210Z,13.20
2022-11-16T23:59:46.040Z,13.30
